Time,TemperatureF,DewpointF,PressureIn,WindDirection,WindDirectionDegrees,WindSpeedMPH,WindSpeedGustMPH,Humidity,HourlyPrecipIn,Conditions,Clouds,dailyrainin,SoftwareType,DateUTC
2013-01-02 00:00:00,38.5,34.9,29.90,West,270,7.0,12.0,87,0.00,,,0.00,meteohub,2013-01-02 00:00:00,
2013-01-02 00:05:00,38.5,34.9,29.90,WSW,248,5.0,11.0,87,0.00,,,0.00,meteohub,2013-01-02 00:05:00,
2013-01-02 00:10:00,38.5,34.9,29.90,West,270,6.0,9.0,87,0.00,,,0.00,meteohub,2013-01-02 00:10:00,
2013-01-02 00:15:00,38.5,34.9,29.90,West,270,5.0,9.0,87,0.00,,,0.00,meteohub,2013-01-02 00:15:00,
2013-01-02 00:20:00,38.5,34.9,29.90,West,270,8.0,9.0,87,0.00,,,0.00,meteohub,2013-01-02 00:20:00,
2013-01-02 00:25:00,38.5,34.9,29.90,West,270,7.0,11.0,87,0.00,,,0.00,meteohub,2013-01-02 00:25:00,
2013-01-02 00:30:00,38.5,34.9,29.90,WSW,248,6.0,11.0,87,0.00,,,0.00,meteohub,2013-01-02 00:30:00,
2013-01-02 00:35:00,38.7,35.4,29.90,WNW,292,7.0,11.0,88,0.00,,,0.00,meteohub,2013-01-02 00:35:00,
2013-01-02 00:40:00,38.7,35.4,29.90,West,270,9.0,11.0,88,0.00,,,0.00,meteohub,2013-01-02 00:40:00,
2013-01-02 00:45:00,38.8,35.6,29.90,West,270,6.0,11.0,88,0.00,,,0.00,meteohub,2013-01-02 00:45:00,
2013-01-02 00:50:00,39.4,36.1,29.90,West,270,9.0,13.0,88,0.00,,,0.00,meteohub,2013-01-02 00:50:00,
2013-01-02 00:55:00,39.6,36.3,29.90,WSW,248,11.0,13.0,88,0.00,,,0.00,meteohub,2013-01-02 00:55:00,
2013-01-02 01:02:00,39.9,36.7,29.90,WSW,248,10.0,14.0,88,0.00,,,0.00,meteohub,2013-01-02 01:02:00,
2013-01-02 01:07:00,39.9,36.3,29.90,West,270,13.0,14.0,87,0.00,,,0.00,meteohub,2013-01-02 01:07:00,
2013-01-02 01:12:00,39.9,36.1,29.90,WSW,248,10.0,14.0,86,0.00,,,0.00,meteohub,2013-01-02 01:12:00,
2013-01-02 01:17:00,40.1,36.3,29.93,West,270,10.0,13.0,86,0.00,,,0.00,meteohub,2013-01-02 01:17:00,
2013-01-02 01:22:00,40.1,36.0,29.93,West,270,12.0,14.0,85,0.00,,,0.00,meteohub,2013-01-02 01:22:00,
2013-01-02 01:28:00,39.9,35.4,29.93,WSW,248,10.0,14.0,84,0.00,,,0.00,meteohub,2013-01-02 01:28:00,
2013-01-02 01:33:00,39.7,35.1,29.93,West,270,11.0,14.0,83,0.00,,,0.00,meteohub,2013-01-02 01:33:00,
2013-01-02 01:38:00,39.6,34.9,29.93,West,270,12.0,13.0,83,0.00,,,0.00,meteohub,2013-01-02 01:38:00,
2013-01-02 01:43:00,39.7,35.2,29.93,WSW,248,8.0,13.0,84,0.00,,,0.00,meteohub,2013-01-02 01:43:00,
2013-01-02 01:48:00,39.7,35.2,29.90,West,270,10.0,13.0,84,0.00,,,0.00,meteohub,2013-01-02 01:48:00,
2013-01-02 01:53:00,39.7,35.6,29.90,West,270,10.0,13.0,85,0.00,,,0.00,meteohub,2013-01-02 01:53:00,
2013-01-02 01:58:00,39.4,35.2,29.90,West,270,9.0,13.0,85,0.00,,,0.00,meteohub,2013-01-02 01:58:00,
2013-01-02 02:03:00,39.7,35.6,29.93,West,270,10.0,13.0,85,0.00,,,0.00,meteohub,2013-01-02 02:03:00,
2013-01-02 02:08:00,39.7,35.6,29.93,West,270,6.0,11.0,85,0.00,,,0.00,meteohub,2013-01-02 02:08:00,
2013-01-02 02:13:00,39.7,35.6,29.93,West,270,8.0,11.0,85,0.00,,,0.00,meteohub,2013-01-02 02:13:00,
2013-01-02 02:18:00,39.4,35.2,29.93,WNW,292,7.0,11.0,85,0.00,,,0.00,meteohub,2013-01-02 02:18:00,
2013-01-02 02:23:00,39.2,35.1,29.93,West,270,7.0,11.0,85,0.00,,,0.00,meteohub,2013-01-02 02:23:00,
2013-01-02 02:28:00,39.0,34.9,29.93,West,270,8.0,10.0,85,0.00,,,0.00,meteohub,2013-01-02 02:28:00,
2013-01-02 02:33:00,39.2,35.1,29.93,West,270,6.0,10.0,85,0.00,,,0.00,meteohub,2013-01-02 02:33:00,
2013-01-02 02:38:00,39.4,35.2,29.93,NW,315,7.0,10.0,85,0.00,,,0.00,meteohub,2013-01-02 02:38:00,
2013-01-02 02:44:00,39.6,35.8,29.93,WNW,292,6.0,10.0,86,0.00,,,0.00,meteohub,2013-01-02 02:44:00,
2013-01-02 02:49:00,39.7,36.0,29.93,WNW,292,6.0,9.0,86,0.00,,,0.00,meteohub,2013-01-02 02:49:00,
2013-01-02 02:54:00,39.7,36.1,29.93,West,270,4.0,9.0,87,0.00,,,0.00,meteohub,2013-01-02 02:54:00,
2013-01-02 02:59:00,39.6,35.8,29.93,West,270,3.0,9.0,86,0.00,,,0.00,meteohub,2013-01-02 02:59:00,
2013-01-02 03:04:00,39.7,36.0,29.96,WSW,248,3.0,8.0,86,0.00,,,0.00,meteohub,2013-01-02 03:04:00,
2013-01-02 03:09:00,39.9,36.3,29.96,West,270,6.0,9.0,87,0.00,,,0.00,meteohub,2013-01-02 03:09:00,
2013-01-02 03:14:00,39.9,36.3,29.96,WNW,292,6.0,9.0,87,0.00,,,0.00,meteohub,2013-01-02 03:14:00,
2013-01-02 03:19:00,39.7,36.1,29.96,WNW,292,5.0,9.0,87,0.00,,,0.00,meteohub,2013-01-02 03:19:00,
2013-01-02 03:24:00,39.7,36.5,29.96,WNW,292,6.0,9.0,88,0.00,,,0.00,meteohub,2013-01-02 03:24:00,
2013-01-02 03:29:00,39.9,36.7,29.96,West,270,6.0,9.0,88,0.00,,,0.00,meteohub,2013-01-02 03:29:00,
2013-01-02 03:34:00,40.1,36.9,29.96,West,270,6.0,6.0,88,0.00,,,0.00,meteohub,2013-01-02 03:34:00,
2013-01-02 03:39:00,40.3,37.2,29.96,West,270,6.0,8.0,89,0.00,,,0.00,meteohub,2013-01-02 03:39:00,
2013-01-02 03:44:00,40.3,37.2,29.96,West,270,6.0,9.0,89,0.00,,,0.00,meteohub,2013-01-02 03:44:00,
2013-01-02 03:49:00,40.1,37.0,29.96,West,270,6.0,9.0,89,0.00,,,0.00,meteohub,2013-01-02 03:49:00,
2013-01-02 03:54:00,40.1,37.0,29.96,West,270,7.0,10.0,89,0.00,,,0.00,meteohub,2013-01-02 03:54:00,
2013-01-02 03:59:00,40.3,37.2,29.96,WNW,292,8.0,10.0,89,0.00,,,0.00,meteohub,2013-01-02 03:59:00,
2013-01-02 04:04:00,40.3,37.6,29.96,West,270,4.0,10.0,90,0.00,,,0.00,meteohub,2013-01-02 04:04:00,
2013-01-02 04:10:00,40.3,37.2,29.96,West,270,6.0,9.0,89,0.00,,,0.00,meteohub,2013-01-02 04:10:00,
2013-01-02 04:15:00,40.3,37.2,29.96,West,270,4.0,9.0,89,0.00,,,0.00,meteohub,2013-01-02 04:15:00,
2013-01-02 04:20:00,40.3,37.6,29.96,WNW,292,6.0,8.0,90,0.00,,,0.00,meteohub,2013-01-02 04:20:00,
2013-01-02 04:25:00,40.6,38.3,29.96,West,270,9.0,11.0,91,0.00,,,0.00,meteohub,2013-01-02 04:25:00,
2013-01-02 04:30:00,40.6,38.3,29.96,WNW,292,5.0,11.0,91,0.00,,,0.00,meteohub,2013-01-02 04:30:00,
2013-01-02 04:35:00,40.5,37.8,29.96,WNW,292,4.0,11.0,90,0.00,,,0.00,meteohub,2013-01-02 04:35:00,
2013-01-02 04:40:00,40.5,37.8,29.96,West,270,4.0,8.0,90,0.00,,,0.00,meteohub,2013-01-02 04:40:00,
2013-01-02 04:45:00,40.3,37.6,29.96,West,270,3.0,6.0,90,0.00,,,0.00,meteohub,2013-01-02 04:45:00,
2013-01-02 04:50:00,40.3,37.6,29.96,West,270,3.0,5.0,90,0.01,,,0.01,meteohub,2013-01-02 04:50:00,
2013-01-02 04:55:00,40.3,37.6,29.96,West,270,4.0,5.0,90,0.01,,,0.01,meteohub,2013-01-02 04:55:00,
2013-01-02 05:00:00,40.5,37.8,29.96,West,270,2.0,4.0,90,0.02,,,0.02,meteohub,2013-01-02 05:00:00,
2013-01-02 05:01:00,40.5,37.8,29.96,West,270,3.0,4.0,90,0.02,,,0.02,meteohub,2013-01-02 05:01:00,
2013-01-02 05:04:00,40.3,37.6,29.96,West,270,2.0,4.0,90,0.02,,,0.02,meteohub,2013-01-02 05:04:00,
2013-01-02 05:08:00,40.3,37.6,29.96,SW,225,0.0,4.0,90,0.03,,,0.03,meteohub,2013-01-02 05:08:00,
2013-01-02 05:13:00,40.3,37.6,29.96,SSE,158,0.0,4.0,90,0.03,,,0.03,meteohub,2013-01-02 05:13:00,
2013-01-02 05:18:00,40.1,37.4,29.96,SSE,158,0.0,4.0,90,0.03,,,0.03,meteohub,2013-01-02 05:18:00,
2013-01-02 05:23:00,40.1,37.4,29.96,SE,135,0.0,2.0,90,0.04,,,0.04,meteohub,2013-01-02 05:23:00,
2013-01-02 05:28:00,39.9,37.0,29.96,ESE,112,2.0,3.0,89,0.04,,,0.04,meteohub,2013-01-02 05:28:00,
2013-01-02 05:34:00,39.9,37.0,29.93,SSE,158,3.0,3.0,89,0.05,,,0.05,meteohub,2013-01-02 05:34:00,
2013-01-02 05:39:00,39.9,37.2,29.93,SSE,158,3.0,3.0,90,0.05,,,0.05,meteohub,2013-01-02 05:39:00,
2013-01-02 05:44:00,39.9,37.2,29.93,South,180,2.0,4.0,90,0.05,,,0.05,meteohub,2013-01-02 05:44:00,
2013-01-02 05:49:00,39.9,37.2,29.93,SSE,158,3.0,4.0,90,0.05,,,0.06,meteohub,2013-01-02 05:49:00,
2013-01-02 05:54:00,40.3,37.6,29.93,SSW,202,4.0,6.0,90,0.05,,,0.06,meteohub,2013-01-02 05:54:00,
2013-01-02 05:59:00,40.6,37.9,29.93,South,180,3.0,6.0,90,0.05,,,0.06,meteohub,2013-01-02 05:59:00,
2013-01-02 06:04:00,40.6,37.9,29.93,South,180,2.0,6.0,90,0.04,,,0.06,meteohub,2013-01-02 06:04:00,
2013-01-02 06:09:00,40.8,38.5,29.93,SSW,202,5.0,5.0,91,0.03,,,0.06,meteohub,2013-01-02 06:09:00,
2013-01-02 06:14:00,41.0,38.7,29.93,South,180,5.0,6.0,91,0.04,,,0.07,meteohub,2013-01-02 06:14:00,
2013-01-02 06:19:00,41.0,38.7,29.93,South,180,6.0,6.0,91,0.04,,,0.07,meteohub,2013-01-02 06:19:00,
2013-01-02 06:24:00,41.0,38.7,29.93,South,180,6.0,7.0,91,0.03,,,0.07,meteohub,2013-01-02 06:24:00,
2013-01-02 06:29:00,41.0,38.8,29.93,South,180,9.0,9.0,92,0.03,,,0.08,meteohub,2013-01-02 06:29:00,
2013-01-02 06:34:00,41.2,39.4,29.93,South,180,6.0,9.0,93,0.03,,,0.08,meteohub,2013-01-02 06:34:00,
2013-01-02 06:39:00,41.2,39.4,29.93,South,180,6.0,9.0,93,0.03,,,0.08,meteohub,2013-01-02 06:39:00,
2013-01-02 06:44:00,41.2,39.6,29.93,SSE,158,6.0,9.0,94,0.04,,,0.09,meteohub,2013-01-02 06:44:00,
2013-01-02 06:49:00,41.0,39.4,29.93,South,180,4.0,9.0,94,0.03,,,0.09,meteohub,2013-01-02 06:49:00,
2013-01-02 06:54:00,41.2,39.6,29.93,South,180,4.0,9.0,94,0.03,,,0.09,meteohub,2013-01-02 06:54:00,
2013-01-02 07:00:00,41.2,39.9,29.93,SSE,158,5.0,7.0,95,0.03,,,0.10,meteohub,2013-01-02 07:00:00,
2013-01-02 07:05:00,41.2,39.9,29.93,South,180,5.0,7.0,95,0.03,,,0.10,meteohub,2013-01-02 07:05:00,
2013-01-02 07:10:00,41.2,39.9,29.93,South,180,4.0,7.0,95,0.03,,,0.10,meteohub,2013-01-02 07:10:00,
2013-01-02 07:15:00,41.2,40.1,29.93,SSW,202,3.0,7.0,96,0.04,,,0.10,meteohub,2013-01-02 07:15:00,
2013-01-02 07:20:00,41.2,40.1,29.93,South,180,5.0,6.0,96,0.04,,,0.11,meteohub,2013-01-02 07:20:00,
2013-01-02 07:25:00,41.2,40.1,29.93,South,180,4.0,6.0,96,0.04,,,0.13,meteohub,2013-01-02 07:25:00,
2013-01-02 07:30:00,41.2,40.1,29.93,South,180,6.0,8.0,96,0.04,,,0.13,meteohub,2013-01-02 07:30:00,
2013-01-02 07:35:00,41.4,40.6,29.93,SSW,202,6.0,8.0,97,0.03,,,0.13,meteohub,2013-01-02 07:35:00,
2013-01-02 07:40:00,41.5,40.8,29.93,WSW,248,4.0,8.0,97,0.03,,,0.13,meteohub,2013-01-02 07:40:00,
2013-01-02 07:45:00,41.5,40.8,29.93,SW,225,4.0,6.0,97,0.03,,,0.13,meteohub,2013-01-02 07:45:00,
2013-01-02 07:50:00,41.5,40.8,29.93,SSW,202,3.0,6.0,97,0.04,,,0.13,meteohub,2013-01-02 07:50:00,
2013-01-02 07:55:00,41.7,41.0,29.93,WSW,248,2.0,5.0,97,0.04,,,0.13,meteohub,2013-01-02 07:55:00,
2013-01-02 08:01:00,41.7,41.0,29.93,West,270,2.0,5.0,97,0.04,,,0.15,meteohub,2013-01-02 08:01:00,
2013-01-02 08:06:00,41.7,41.0,29.93,West,270,0.0,4.0,97,0.04,,,0.15,meteohub,2013-01-02 08:06:00,
2013-01-02 08:11:00,41.5,40.8,29.93,WNW,292,0.0,4.0,97,0.04,,,0.15,meteohub,2013-01-02 08:11:00,
2013-01-02 08:16:00,41.5,40.8,29.93,WNW,292,1.0,2.0,97,0.03,,,0.15,meteohub,2013-01-02 08:16:00,
2013-01-02 08:21:00,41.5,40.8,29.93,WSW,248,2.0,2.0,97,0.04,,,0.15,meteohub,2013-01-02 08:21:00,
2013-01-02 08:26:00,41.5,40.8,29.93,SW,225,3.0,4.0,97,0.03,,,0.15,meteohub,2013-01-02 08:26:00,
2013-01-02 08:31:00,41.5,40.8,29.93,South,180,2.0,4.0,97,0.04,,,0.17,meteohub,2013-01-02 08:31:00,
2013-01-02 08:36:00,41.4,40.6,29.93,South,180,3.0,4.0,97,0.04,,,0.17,meteohub,2013-01-02 08:36:00,
2013-01-02 08:41:00,41.2,40.5,29.93,SSE,158,4.0,4.0,97,0.04,,,0.17,meteohub,2013-01-02 08:41:00,
2013-01-02 08:46:00,41.2,40.5,29.93,SSE,158,0.0,5.0,97,0.05,,,0.18,meteohub,2013-01-02 08:46:00,
2013-01-02 08:51:00,41.2,40.5,29.93,SE,135,0.0,5.0,97,0.04,,,0.18,meteohub,2013-01-02 08:51:00,
2013-01-02 08:56:00,41.0,40.3,29.93,SE,135,0.0,5.0,97,0.04,,,0.18,meteohub,2013-01-02 08:56:00,
2013-01-02 09:01:00,41.0,40.3,29.93,SSE,158,0.0,2.0,97,0.03,,,0.18,meteohub,2013-01-02 09:01:00,
2013-01-02 09:06:00,41.0,40.3,29.93,SSE,158,0.0,0.0,97,0.03,,,0.18,meteohub,2013-01-02 09:06:00,
2013-01-02 09:11:00,41.0,40.3,29.93,South,180,0.0,0.0,97,0.03,,,0.18,meteohub,2013-01-02 09:11:00,
2013-01-02 09:16:00,41.0,40.3,29.93,South,180,3.0,3.0,97,0.03,,,0.18,meteohub,2013-01-02 09:16:00,
2013-01-02 09:21:00,41.2,40.5,29.93,South,180,0.0,3.0,97,0.02,,,0.18,meteohub,2013-01-02 09:21:00,
2013-01-02 09:27:00,41.2,40.5,29.93,WNW,292,0.0,3.0,97,0.01,,,0.18,meteohub,2013-01-02 09:27:00,
2013-01-02 09:32:00,41.0,40.5,29.93,WNW,292,0.0,3.0,98,0.01,,,0.18,meteohub,2013-01-02 09:32:00,
2013-01-02 09:37:00,41.0,40.5,29.93,WSW,248,2.0,2.0,98,0.01,,,0.18,meteohub,2013-01-02 09:37:00,
2013-01-02 09:42:00,41.2,40.6,29.93,West,270,0.0,3.0,98,0.01,,,0.18,meteohub,2013-01-02 09:42:00,
2013-01-02 09:47:00,41.4,40.8,29.93,WSW,248,3.0,4.0,98,0.00,,,0.18,meteohub,2013-01-02 09:47:00,
2013-01-02 09:52:00,41.5,41.0,29.93,SSW,202,2.0,4.0,98,0.00,,,0.18,meteohub,2013-01-02 09:52:00,
2013-01-02 09:57:00,41.5,41.0,29.93,SSW,202,2.0,4.0,98,0.00,,,0.18,meteohub,2013-01-02 09:57:00,
2013-01-02 10:02:00,41.7,41.2,29.93,SW,225,3.0,4.0,98,0.00,,,0.18,meteohub,2013-01-02 10:02:00,
2013-01-02 10:07:00,41.7,41.2,29.93,West,270,3.0,4.0,98,0.00,,,0.18,meteohub,2013-01-02 10:07:00,
2013-01-02 10:12:00,41.7,41.2,29.93,WSW,248,3.0,4.0,98,0.00,,,0.18,meteohub,2013-01-02 10:12:00,
2013-01-02 10:17:00,41.7,41.2,29.93,West,270,3.0,5.0,98,0.00,,,0.18,meteohub,2013-01-02 10:17:00,
2013-01-02 10:22:00,41.7,41.2,29.93,SW,225,4.0,5.0,98,0.00,,,0.18,meteohub,2013-01-02 10:22:00,
2013-01-02 10:27:00,41.9,41.4,29.93,West,270,7.0,7.0,98,0.00,,,0.18,meteohub,2013-01-02 10:27:00,
2013-01-02 10:32:00,42.1,41.5,29.93,West,270,3.0,7.0,98,0.00,,,0.18,meteohub,2013-01-02 10:32:00,
2013-01-02 10:37:00,42.3,41.7,29.93,West,270,3.0,7.0,98,0.00,,,0.18,meteohub,2013-01-02 10:37:00,
2013-01-02 10:42:00,42.4,41.9,29.93,West,270,4.0,7.0,98,0.00,,,0.18,meteohub,2013-01-02 10:42:00,
2013-01-02 10:47:00,42.4,41.9,29.93,West,270,4.0,9.0,98,0.00,,,0.18,meteohub,2013-01-02 10:47:00,
2013-01-02 10:53:00,42.4,41.9,29.93,WNW,292,5.0,9.0,98,0.00,,,0.18,meteohub,2013-01-02 10:53:00,
2013-01-02 10:58:00,42.8,42.3,29.93,WNW,292,5.0,9.0,98,0.00,,,0.18,meteohub,2013-01-02 10:58:00,
2013-01-02 11:03:00,42.8,42.3,29.93,West,270,2.0,8.0,98,0.00,,,0.18,meteohub,2013-01-02 11:03:00,
2013-01-02 11:08:00,42.8,42.3,29.93,WNW,292,3.0,8.0,98,0.00,,,0.18,meteohub,2013-01-02 11:08:00,
2013-01-02 11:13:00,42.8,42.3,29.93,WNW,292,3.0,8.0,98,0.00,,,0.18,meteohub,2013-01-02 11:13:00,
2013-01-02 11:18:00,42.8,42.3,29.90,West,270,3.0,8.0,98,0.00,,,0.18,meteohub,2013-01-02 11:18:00,
2013-01-02 11:23:00,43.0,42.4,29.90,West,270,4.0,8.0,98,0.00,,,0.18,meteohub,2013-01-02 11:23:00,
2013-01-02 11:28:00,43.0,42.4,29.90,West,270,4.0,8.0,98,0.00,,,0.18,meteohub,2013-01-02 11:28:00,
2013-01-02 11:33:00,43.0,42.4,29.93,West,270,4.0,6.0,98,0.00,,,0.18,meteohub,2013-01-02 11:33:00,
2013-01-02 11:38:00,43.3,42.8,29.93,West,270,3.0,8.0,98,0.00,,,0.18,meteohub,2013-01-02 11:38:00,
2013-01-02 11:43:00,43.3,42.8,29.93,WNW,292,5.0,8.0,98,0.00,,,0.18,meteohub,2013-01-02 11:43:00,
2013-01-02 11:48:00,43.5,43.0,29.90,West,270,4.0,8.0,98,0.00,,,0.18,meteohub,2013-01-02 11:48:00,
2013-01-02 11:53:00,43.7,43.2,29.90,WNW,292,4.0,6.0,98,0.00,,,0.18,meteohub,2013-01-02 11:53:00,
2013-01-02 11:58:00,43.9,43.3,29.90,WSW,248,5.0,7.0,98,0.00,,,0.18,meteohub,2013-01-02 11:58:00,
2013-01-02 12:03:00,44.2,43.7,29.90,WSW,248,3.0,7.0,98,0.00,,,0.18,meteohub,2013-01-02 12:03:00,
2013-01-02 12:08:00,44.8,44.2,29.90,West,270,5.0,10.0,98,0.00,,,0.18,meteohub,2013-01-02 12:08:00,
2013-01-02 12:14:00,45.1,44.6,29.90,West,270,10.0,12.0,98,0.00,,,0.18,meteohub,2013-01-02 12:14:00,
2013-01-02 12:19:00,45.5,45.0,29.93,West,270,15.0,15.0,98,0.00,,,0.18,meteohub,2013-01-02 12:19:00,
2013-01-02 12:24:00,45.9,45.3,29.93,West,270,11.0,16.0,98,0.00,,,0.18,meteohub,2013-01-02 12:24:00,
2013-01-02 12:29:00,46.0,45.5,29.93,WSW,248,11.0,18.0,98,0.00,,,0.18,meteohub,2013-01-02 12:29:00,
2013-01-02 12:34:00,46.2,45.7,29.90,WSW,248,6.0,18.0,98,0.00,,,0.18,meteohub,2013-01-02 12:34:00,
2013-01-02 12:39:00,46.6,46.0,29.90,West,270,8.0,18.0,98,0.00,,,0.18,meteohub,2013-01-02 12:39:00,
2013-01-02 12:44:00,46.6,46.0,29.90,West,270,14.0,17.0,98,0.00,,,0.18,meteohub,2013-01-02 12:44:00,
2013-01-02 12:49:00,46.9,46.4,29.90,WSW,248,11.0,17.0,98,0.00,,,0.18,meteohub,2013-01-02 12:49:00,
2013-01-02 12:54:00,47.1,46.6,29.90,West,270,13.0,17.0,98,0.00,,,0.18,meteohub,2013-01-02 12:54:00,
2013-01-02 12:59:00,47.3,46.8,29.90,NW,315,8.0,17.0,98,0.00,,,0.18,meteohub,2013-01-02 12:59:00,
2013-01-02 13:04:00,47.3,46.8,29.90,WSW,248,11.0,16.0,98,0.00,,,0.18,meteohub,2013-01-02 13:04:00,
2013-01-02 13:09:00,47.5,46.9,29.90,West,270,12.0,16.0,98,0.00,,,0.18,meteohub,2013-01-02 13:09:00,
2013-01-02 13:14:00,47.7,47.1,29.90,West,270,14.0,16.0,98,0.00,,,0.18,meteohub,2013-01-02 13:14:00,
2013-01-02 13:19:00,47.7,47.1,29.93,West,270,13.0,15.0,98,0.00,,,0.18,meteohub,2013-01-02 13:19:00,
2013-01-02 13:24:00,47.8,47.3,29.93,West,270,10.0,15.0,98,0.00,,,0.18,meteohub,2013-01-02 13:24:00,
2013-01-02 13:29:00,48.0,47.5,29.93,WSW,248,13.0,15.0,98,0.00,,,0.18,meteohub,2013-01-02 13:29:00,
2013-01-02 13:35:00,48.0,47.5,29.90,WSW,248,8.0,15.0,98,0.00,,,0.18,meteohub,2013-01-02 13:35:00,
2013-01-02 13:40:00,48.2,47.7,29.90,WSW,248,8.0,15.0,98,0.00,,,0.18,meteohub,2013-01-02 13:40:00,
2013-01-02 13:45:00,48.4,47.8,29.90,WSW,248,12.0,15.0,98,0.00,,,0.18,meteohub,2013-01-02 13:45:00,
2013-01-02 13:50:00,48.6,48.0,29.93,SW,225,11.0,15.0,98,0.00,,,0.18,meteohub,2013-01-02 13:50:00,
2013-01-02 13:55:00,48.6,48.0,29.93,WSW,248,11.0,15.0,98,0.00,,,0.18,meteohub,2013-01-02 13:55:00,
2013-01-02 14:00:00,48.7,48.2,29.93,WNW,292,15.0,18.0,98,0.00,,,0.18,meteohub,2013-01-02 14:00:00,
2013-01-02 14:05:00,48.9,48.4,29.93,West,270,11.0,21.0,98,0.00,,,0.18,meteohub,2013-01-02 14:05:00,
2013-01-02 14:10:00,49.1,48.6,29.93,WSW,248,11.0,21.0,98,0.00,,,0.18,meteohub,2013-01-02 14:10:00,
2013-01-02 14:15:00,49.1,48.6,29.93,South,180,10.0,21.0,98,0.00,,,0.18,meteohub,2013-01-02 14:15:00,
2013-01-02 14:20:00,49.3,48.7,29.93,WSW,248,9.0,18.0,98,0.00,,,0.18,meteohub,2013-01-02 14:20:00,
2013-01-02 14:25:00,49.3,48.7,29.93,WSW,248,10.0,18.0,98,0.00,,,0.18,meteohub,2013-01-02 14:25:00,
2013-01-02 14:30:00,49.5,48.9,29.93,SW,225,8.0,18.0,98,0.00,,,0.18,meteohub,2013-01-02 14:30:00,
2013-01-02 14:35:00,49.6,49.1,29.93,SW,225,11.0,19.0,98,0.00,,,0.18,meteohub,2013-01-02 14:35:00,
2013-01-02 14:40:00,49.6,49.1,29.93,WSW,248,9.0,19.0,98,0.00,,,0.18,meteohub,2013-01-02 14:40:00,
2013-01-02 14:45:00,49.6,49.1,29.93,SW,225,5.0,19.0,98,0.00,,,0.18,meteohub,2013-01-02 14:45:00,
2013-01-02 14:50:00,49.8,49.3,29.93,SW,225,10.0,16.0,98,0.00,,,0.18,meteohub,2013-01-02 14:50:00,
2013-01-02 14:55:00,49.8,49.3,29.93,WSW,248,10.0,16.0,98,0.00,,,0.18,meteohub,2013-01-02 14:55:00,
2013-01-02 15:00:00,49.8,49.3,29.93,WSW,248,9.0,15.0,98,0.00,,,0.18,meteohub,2013-01-02 15:00:00,
2013-01-02 15:06:00,50.0,49.5,29.93,WNW,292,10.0,17.0,98,0.00,,,0.18,meteohub,2013-01-02 15:06:00,
2013-01-02 15:11:00,49.8,49.3,29.93,WSW,248,6.0,17.0,98,0.00,,,0.18,meteohub,2013-01-02 15:11:00,
2013-01-02 15:16:00,50.0,49.5,29.93,WSW,248,14.0,17.0,98,0.00,,,0.18,meteohub,2013-01-02 15:16:00,
2013-01-02 15:21:00,50.0,49.5,29.93,WSW,248,19.0,19.0,98,0.00,,,0.18,meteohub,2013-01-02 15:21:00,
2013-01-02 15:26:00,50.2,49.6,29.93,WSW,248,17.0,23.0,98,0.00,,,0.18,meteohub,2013-01-02 15:26:00,
2013-01-02 15:31:00,50.0,49.5,29.93,WSW,248,13.0,23.0,98,0.00,,,0.18,meteohub,2013-01-02 15:31:00,
2013-01-02 15:36:00,50.0,49.5,29.93,WSW,248,15.0,23.0,98,0.00,,,0.18,meteohub,2013-01-02 15:36:00,
2013-01-02 15:41:00,50.0,49.5,29.93,WSW,248,14.0,23.0,98,0.00,,,0.18,meteohub,2013-01-02 15:41:00,
2013-01-02 15:46:00,50.0,49.5,29.93,SW,225,12.0,20.0,98,0.00,,,0.18,meteohub,2013-01-02 15:46:00,
2013-01-02 15:51:00,50.2,49.6,29.93,WSW,248,13.0,24.0,98,0.00,,,0.18,meteohub,2013-01-02 15:51:00,
2013-01-02 15:56:00,50.2,49.6,29.93,SW,225,20.0,24.0,98,0.00,,,0.18,meteohub,2013-01-02 15:56:00,
2013-01-02 16:01:00,50.2,49.6,29.93,WSW,248,13.0,24.0,98,0.00,,,0.18,meteohub,2013-01-02 16:01:00,
2013-01-02 16:06:00,50.2,49.6,29.93,SW,225,11.0,25.0,98,0.00,,,0.18,meteohub,2013-01-02 16:06:00,
2013-01-02 16:11:00,50.2,49.6,29.93,WSW,248,10.0,25.0,98,0.00,,,0.18,meteohub,2013-01-02 16:11:00,
2013-01-02 16:16:00,50.2,49.6,29.93,WSW,248,13.0,25.0,98,0.00,,,0.18,meteohub,2013-01-02 16:16:00,
2013-01-02 16:22:00,50.2,49.6,29.93,SW,225,10.0,21.0,98,0.00,,,0.18,meteohub,2013-01-02 16:22:00,
2013-01-02 16:27:00,50.2,49.6,29.93,WSW,248,11.0,21.0,98,0.00,,,0.18,meteohub,2013-01-02 16:27:00,
2013-01-02 16:32:00,50.2,49.6,29.93,WSW,248,8.0,21.0,98,0.00,,,0.18,meteohub,2013-01-02 16:32:00,
2013-01-02 16:37:00,50.4,49.8,29.96,WSW,248,8.0,17.0,98,0.00,,,0.18,meteohub,2013-01-02 16:37:00,
2013-01-02 16:42:00,50.4,49.8,29.96,WSW,248,13.0,17.0,98,0.00,,,0.18,meteohub,2013-01-02 16:42:00,
2013-01-02 16:47:00,50.4,49.8,29.96,SSW,202,13.0,18.0,98,0.00,,,0.18,meteohub,2013-01-02 16:47:00,
2013-01-02 16:52:00,50.5,50.0,29.96,WSW,248,11.0,18.0,98,0.00,,,0.18,meteohub,2013-01-02 16:52:00,
2013-01-02 16:57:00,50.5,50.0,29.96,WSW,248,13.0,21.0,98,0.00,,,0.18,meteohub,2013-01-02 16:57:00,
2013-01-02 17:02:00,50.5,50.0,29.96,WSW,248,15.0,21.0,98,0.00,,,0.18,meteohub,2013-01-02 17:02:00,
2013-01-02 17:07:00,50.7,50.2,29.93,WSW,248,17.0,21.0,98,0.00,,,0.18,meteohub,2013-01-02 17:07:00,
2013-01-02 17:12:00,50.9,50.4,29.93,WSW,248,8.0,20.0,98,0.00,,,0.18,meteohub,2013-01-02 17:12:00,
2013-01-02 17:17:00,50.9,50.4,29.93,WSW,248,15.0,20.0,98,0.00,,,0.18,meteohub,2013-01-02 17:17:00,
2013-01-02 17:22:00,50.9,50.4,29.96,West,270,19.0,20.0,98,0.00,,,0.18,meteohub,2013-01-02 17:22:00,
2013-01-02 17:27:00,50.9,50.4,29.96,WSW,248,13.0,20.0,98,0.00,,,0.18,meteohub,2013-01-02 17:27:00,
2013-01-02 17:32:00,51.1,50.5,29.96,WSW,248,11.0,22.0,98,0.00,,,0.18,meteohub,2013-01-02 17:32:00,
2013-01-02 17:37:00,51.1,50.5,29.96,WSW,248,14.0,22.0,98,0.00,,,0.18,meteohub,2013-01-02 17:37:00,
2013-01-02 17:42:00,50.9,50.4,29.96,SSW,202,7.0,22.0,98,0.00,,,0.18,meteohub,2013-01-02 17:42:00,
2013-01-02 17:48:00,50.7,50.2,29.96,WSW,248,15.0,18.0,98,0.00,,,0.18,meteohub,2013-01-02 17:48:00,
2013-01-02 17:53:00,50.7,50.2,29.96,West,270,12.0,18.0,98,0.00,,,0.18,meteohub,2013-01-02 17:53:00,
2013-01-02 17:58:00,50.9,50.4,29.96,WSW,248,13.0,25.0,98,0.00,,,0.18,meteohub,2013-01-02 17:58:00,
2013-01-02 18:03:00,51.1,50.5,29.93,SSW,202,11.0,25.0,98,0.00,,,0.18,meteohub,2013-01-02 18:03:00,
2013-01-02 18:08:00,51.1,50.5,29.93,SW,225,9.0,25.0,98,0.00,,,0.18,meteohub,2013-01-02 18:08:00,
2013-01-02 18:13:00,51.1,50.5,29.93,WSW,248,10.0,20.0,98,0.00,,,0.18,meteohub,2013-01-02 18:13:00,
2013-01-02 18:18:00,51.1,50.5,29.96,WSW,248,14.0,19.0,98,0.00,,,0.18,meteohub,2013-01-02 18:18:00,
2013-01-02 18:23:00,51.1,50.5,29.96,SSW,202,8.0,19.0,98,0.00,,,0.18,meteohub,2013-01-02 18:23:00,
2013-01-02 18:28:00,51.1,50.5,29.96,West,270,11.0,19.0,98,0.00,,,0.18,meteohub,2013-01-02 18:28:00,
2013-01-02 18:33:00,51.3,50.7,29.96,SW,225,17.0,19.0,98,0.00,,,0.18,meteohub,2013-01-02 18:33:00,
2013-01-02 18:38:00,51.1,50.5,29.96,WSW,248,10.0,19.0,98,0.00,,,0.18,meteohub,2013-01-02 18:38:00,
2013-01-02 18:43:00,50.9,50.4,29.96,South,180,9.0,18.0,98,0.00,,,0.18,meteohub,2013-01-02 18:43:00,
2013-01-02 18:48:00,50.9,50.4,29.96,SSW,202,8.0,17.0,98,0.00,,,0.18,meteohub,2013-01-02 18:48:00,
2013-01-02 18:53:00,51.1,50.5,29.96,WSW,248,13.0,15.0,98,0.00,,,0.18,meteohub,2013-01-02 18:53:00,
2013-01-02 18:58:00,51.1,50.5,29.96,SW,225,13.0,17.0,98,0.00,,,0.18,meteohub,2013-01-02 18:58:00,
2013-01-02 19:03:00,51.1,50.5,29.96,WSW,248,8.0,17.0,98,0.00,,,0.18,meteohub,2013-01-02 19:03:00,
2013-01-02 19:08:00,51.1,50.5,29.96,SSW,202,11.0,20.0,98,0.00,,,0.18,meteohub,2013-01-02 19:08:00,
2013-01-02 19:13:00,51.3,50.7,29.96,WSW,248,15.0,20.0,98,0.00,,,0.18,meteohub,2013-01-02 19:13:00,
2013-01-02 19:19:00,51.3,50.7,29.96,SSW,202,11.0,24.0,98,0.00,,,0.18,meteohub,2013-01-02 19:19:00,
2013-01-02 19:24:00,51.3,50.7,29.96,SW,225,10.0,24.0,98,0.00,,,0.18,meteohub,2013-01-02 19:24:00,
2013-01-02 19:29:00,51.3,50.7,29.96,SSW,202,11.0,24.0,98,0.00,,,0.18,meteohub,2013-01-02 19:29:00,
2013-01-02 19:34:00,51.3,50.7,29.96,WSW,248,13.0,17.0,98,0.00,,,0.18,meteohub,2013-01-02 19:34:00,
2013-01-02 19:39:00,51.3,50.7,29.96,SSW,202,11.0,22.0,98,0.00,,,0.18,meteohub,2013-01-02 19:39:00,
2013-01-02 19:44:00,51.3,50.7,29.96,SW,225,13.0,22.0,98,0.00,,,0.18,meteohub,2013-01-02 19:44:00,
2013-01-02 19:49:00,51.1,50.5,29.96,SW,225,17.0,22.0,98,0.00,,,0.18,meteohub,2013-01-02 19:49:00,
2013-01-02 19:54:00,51.3,50.7,29.96,SW,225,10.0,23.0,98,0.00,,,0.18,meteohub,2013-01-02 19:54:00,
2013-01-02 19:59:00,51.3,50.7,29.96,SSW,202,16.0,23.0,98,0.00,,,0.18,meteohub,2013-01-02 19:59:00,
2013-01-02 20:04:00,51.3,50.7,29.96,West,270,23.0,23.0,98,0.00,,,0.18,meteohub,2013-01-02 20:04:00,
2013-01-02 20:09:00,51.3,50.7,29.96,WSW,248,19.0,25.0,98,0.00,,,0.18,meteohub,2013-01-02 20:09:00,
2013-01-02 20:14:00,51.3,50.7,29.96,WSW,248,13.0,26.0,98,0.00,,,0.18,meteohub,2013-01-02 20:14:00,
2013-01-02 20:19:00,51.3,50.7,29.96,WSW,248,20.0,26.0,98,0.00,,,0.18,meteohub,2013-01-02 20:19:00,
2013-01-02 20:24:00,51.4,50.5,29.96,WSW,248,15.0,26.0,97,0.00,,,0.18,meteohub,2013-01-02 20:24:00,
2013-01-02 20:29:00,51.3,50.4,29.96,WSW,248,15.0,28.0,97,0.00,,,0.18,meteohub,2013-01-02 20:29:00,
2013-01-02 20:34:00,51.4,50.5,29.96,WSW,248,24.0,28.0,97,0.00,,,0.18,meteohub,2013-01-02 20:34:00,
2013-01-02 20:39:00,51.4,50.5,29.96,West,270,24.0,28.0,97,0.00,,,0.18,meteohub,2013-01-02 20:39:00,
2013-01-02 20:45:00,51.4,50.5,29.96,WSW,248,18.0,28.0,97,0.00,,,0.18,meteohub,2013-01-02 20:45:00,
2013-01-02 20:50:00,51.4,50.5,29.96,WSW,248,18.0,27.0,97,0.00,,,0.18,meteohub,2013-01-02 20:50:00,
2013-01-02 20:55:00,51.4,50.4,29.96,WSW,248,13.0,27.0,96,0.00,,,0.18,meteohub,2013-01-02 20:55:00,
2013-01-02 21:00:00,51.4,50.4,29.96,WSW,248,14.0,27.0,96,0.00,,,0.18,meteohub,2013-01-02 21:00:00,
2013-01-02 21:05:00,51.4,50.4,29.99,WSW,248,16.0,27.0,96,0.00,,,0.18,meteohub,2013-01-02 21:05:00,
2013-01-02 21:10:00,51.4,50.4,29.99,WSW,248,17.0,24.0,96,0.00,,,0.18,meteohub,2013-01-02 21:10:00,
2013-01-02 21:15:00,51.4,50.4,29.99,WSW,248,11.0,28.0,96,0.00,,,0.18,meteohub,2013-01-02 21:15:00,
2013-01-02 21:20:00,51.4,50.4,29.99,WSW,248,21.0,28.0,96,0.00,,,0.18,meteohub,2013-01-02 21:20:00,
2013-01-02 21:25:00,51.3,50.2,29.99,WSW,248,11.0,28.0,96,0.00,,,0.18,meteohub,2013-01-02 21:25:00,
2013-01-02 21:30:00,51.3,50.2,29.99,WSW,248,19.0,25.0,96,0.00,,,0.18,meteohub,2013-01-02 21:30:00,
2013-01-02 21:35:00,51.3,50.2,29.99,WSW,248,17.0,25.0,96,0.00,,,0.18,meteohub,2013-01-02 21:35:00,
2013-01-02 21:40:00,51.3,50.2,29.99,West,270,16.0,25.0,96,0.00,,,0.18,meteohub,2013-01-02 21:40:00,
2013-01-02 21:45:00,51.3,50.2,29.99,WSW,248,19.0,23.0,96,0.00,,,0.18,meteohub,2013-01-02 21:45:00,
2013-01-02 21:50:00,51.3,50.2,29.99,WSW,248,20.0,23.0,96,0.00,,,0.18,meteohub,2013-01-02 21:50:00,
2013-01-02 21:55:00,51.4,50.4,29.99,WSW,248,26.0,26.0,96,0.00,,,0.18,meteohub,2013-01-02 21:55:00,
2013-01-02 22:00:00,51.4,50.4,29.99,WSW,248,20.0,26.0,96,0.00,,,0.18,meteohub,2013-01-02 22:00:00,
2013-01-02 22:05:00,51.4,50.4,29.99,WSW,248,15.0,26.0,96,0.00,,,0.18,meteohub,2013-01-02 22:05:00,
2013-01-02 22:10:00,51.4,50.4,29.99,SW,225,16.0,26.0,96,0.00,,,0.18,meteohub,2013-01-02 22:10:00,
2013-01-02 22:16:00,51.4,50.4,29.99,SW,225,15.0,27.0,96,0.01,,,0.19,meteohub,2013-01-02 22:16:00,
2013-01-02 22:21:00,51.4,50.4,29.99,WSW,248,17.0,30.0,96,0.01,,,0.19,meteohub,2013-01-02 22:21:00,
2013-01-02 22:26:00,51.4,50.4,29.99,WSW,248,27.0,30.0,96,0.01,,,0.19,meteohub,2013-01-02 22:26:00,
2013-01-02 22:31:00,51.4,50.4,29.99,WSW,248,18.0,30.0,96,0.01,,,0.19,meteohub,2013-01-02 22:31:00,
2013-01-02 22:36:00,51.4,50.4,29.99,WSW,248,24.0,27.0,96,0.01,,,0.19,meteohub,2013-01-02 22:36:00,
2013-01-02 22:41:00,51.4,50.4,29.99,WSW,248,21.0,28.0,96,0.01,,,0.19,meteohub,2013-01-02 22:41:00,
2013-01-02 22:46:00,51.4,50.4,29.99,WSW,248,15.0,28.0,96,0.01,,,0.19,meteohub,2013-01-02 22:46:00,
2013-01-02 22:51:00,51.4,50.4,29.99,WSW,248,14.0,28.0,96,0.01,,,0.19,meteohub,2013-01-02 22:51:00,
2013-01-02 22:56:00,51.4,50.4,29.99,SSW,202,18.0,29.0,96,0.01,,,0.19,meteohub,2013-01-02 22:56:00,
2013-01-02 23:01:00,51.4,50.4,29.99,WSW,248,13.0,29.0,96,0.01,,,0.19,meteohub,2013-01-02 23:01:00,
2013-01-02 23:06:00,51.3,50.2,30.01,WSW,248,17.0,29.0,96,0.01,,,0.19,meteohub,2013-01-02 23:06:00,
2013-01-02 23:11:00,51.4,50.4,30.01,WSW,248,15.0,27.0,96,0.01,,,0.19,meteohub,2013-01-02 23:11:00,
2013-01-02 23:16:00,51.3,50.2,30.01,SW,225,15.0,27.0,96,0.00,,,0.19,meteohub,2013-01-02 23:16:00,
2013-01-02 23:21:00,51.3,50.2,30.01,WSW,248,18.0,27.0,96,0.00,,,0.19,meteohub,2013-01-02 23:21:00,
2013-01-02 23:26:00,51.3,50.2,30.01,SW,225,13.0,22.0,96,0.00,,,0.19,meteohub,2013-01-02 23:26:00,
2013-01-02 23:31:00,51.3,50.2,30.01,WSW,248,13.0,22.0,96,0.00,,,0.19,meteohub,2013-01-02 23:31:00,
2013-01-02 23:36:00,51.3,50.2,30.01,SW,225,13.0,21.0,96,0.00,,,0.19,meteohub,2013-01-02 23:36:00,
2013-01-02 23:42:00,51.3,50.2,30.01,WSW,248,17.0,22.0,96,0.00,,,0.19,meteohub,2013-01-02 23:42:00,
2013-01-02 23:47:00,51.3,50.2,30.01,WSW,248,7.0,25.0,96,0.00,,,0.19,meteohub,2013-01-02 23:47:00,
2013-01-02 23:52:00,51.3,50.2,30.01,SW,225,17.0,25.0,96,0.00,,,0.19,meteohub,2013-01-02 23:52:00,
2013-01-02 23:57:00,51.4,50.4,30.01,SW,225,16.0,25.0,96,0.00,,,0.19,meteohub,2013-01-02 23:57:00,